createdAt,value
2023-05-24T00:00:17.248Z,9.20
2023-05-24T00:02:48.643Z,8.73
2023-05-24T00:05:19.059Z,8.93
2023-05-24T00:07:49.754Z,9.07
2023-05-24T00:10:18.146Z,8.85
2023-05-24T00:12:47.720Z,9.10
2023-05-24T00:15:19.127Z,8.98
2023-05-24T00:17:52.569Z,9.52
2023-05-24T00:20:21.340Z,9.25
2023-05-24T00:22:49.908Z,9.43
2023-05-24T00:25:18.317Z,9.23
2023-05-24T00:27:47.780Z,9.15
2023-05-24T00:30:16.436Z,9.07
2023-05-24T00:32:45.099Z,9.15
2023-05-24T00:35:16.724Z,8.43
2023-05-24T00:37:45.796Z,8.85
2023-05-24T00:40:17.979Z,8.82
2023-05-24T00:42:46.221Z,8.82
2023-05-24T00:45:14.907Z,9.23
2023-05-24T00:47:45.060Z,9.60
2023-05-24T00:50:18.233Z,9.07
2023-05-24T00:52:51.208Z,8.85
2023-05-24T00:55:20.045Z,8.65
2023-05-24T00:57:50.014Z,8.73
2023-05-24T01:00:18.877Z,8.82
2023-05-24T01:02:50.915Z,8.98
2023-05-24T01:05:22.034Z,9.00
2023-05-24T01:08:01.092Z,8.40
2023-05-24T01:10:36.517Z,8.70
2023-05-24T01:13:16.916Z,9.00
2023-05-24T01:15:53.128Z,8.80
2023-05-24T01:18:31.851Z,8.90
2023-05-24T01:21:10.309Z,9.10
2023-05-24T01:23:50.913Z,9.15
2023-05-24T01:26:33.170Z,9.85
2023-05-24T01:29:05.856Z,9.43
2023-05-24T01:31:35.536Z,10.15
2023-05-24T01:34:04.456Z,9.88
2023-05-24T01:36:33.425Z,10.23
2023-05-24T01:39:03.763Z,10.68
2023-05-24T01:41:40.703Z,11.32
2023-05-24T01:44:20.749Z,10.60
2023-05-24T01:46:56.810Z,10.82
2023-05-24T01:49:29.053Z,10.70
2023-05-24T01:52:01.653Z,10.73
2023-05-24T01:54:34.915Z,10.35
2023-05-24T01:57:06.488Z,10.68
2023-05-24T01:59:41.488Z,10.65
2023-05-24T02:02:10.180Z,10.82
2023-05-24T02:04:39.004Z,10.55
2023-05-24T02:07:07.584Z,11.30
2023-05-24T02:09:36.353Z,11.32
2023-05-24T02:12:05.935Z,10.48
2023-05-24T02:14:38.098Z,10.27
2023-05-24T02:17:06.849Z,10.02
2023-05-24T02:19:36.989Z,10.27
2023-05-24T02:22:06.417Z,9.57
2023-05-24T02:24:35.474Z,9.75
2023-05-24T02:27:03.961Z,9.60
2023-05-24T02:29:32.193Z,10.10
2023-05-24T02:32:05.355Z,9.40
2023-05-24T02:34:36.221Z,9.85
2023-05-24T02:37:05.946Z,9.85
2023-05-24T02:39:35.894Z,9.50
2023-05-24T02:42:05.893Z,9.32
2023-05-24T02:44:34.290Z,9.60
2023-05-24T02:47:04.454Z,9.70
2023-05-24T02:49:32.978Z,9.48
2023-05-24T02:52:01.499Z,9.68
2023-05-24T02:54:29.823Z,9.05
2023-05-24T02:57:01.048Z,9.52
2023-05-24T02:59:29.462Z,9.75
2023-05-24T03:01:57.922Z,10.10
2023-05-24T03:04:29.121Z,9.75
2023-05-24T03:06:57.608Z,10.18
2023-05-24T03:09:26.587Z,9.57
2023-05-24T03:11:56.042Z,9.95
2023-05-24T03:14:25.240Z,9.77
2023-05-24T03:16:54.039Z,10.15
2023-05-24T03:19:22.738Z,10.02
2023-05-24T03:21:52.669Z,10.60
2023-05-24T03:24:21.263Z,10.30
2023-05-24T03:26:51.786Z,10.38
2023-05-24T03:29:20.488Z,10.00
2023-05-24T03:31:52.293Z,9.75
2023-05-24T03:36:49.644Z,9.70
2023-05-24T03:39:19.760Z,10.65
2023-05-24T03:41:48.032Z,10.40
2023-05-24T03:44:16.826Z,10.95
2023-05-24T03:46:45.594Z,10.60
2023-05-24T03:49:14.073Z,10.80
2023-05-24T03:51:44.297Z,10.52
2023-05-24T03:54:12.593Z,10.77
2023-05-24T03:56:45.375Z,10.15
2023-05-24T03:59:13.916Z,11.13
2023-05-24T04:01:42.827Z,10.13
2023-05-24T04:04:11.654Z,10.90
2023-05-24T04:06:43.435Z,11.02
2023-05-24T04:11:40.399Z,10.73
2023-05-24T04:14:13.025Z,11.50
2023-05-24T04:16:45.067Z,10.65
2023-05-24T04:19:14.888Z,11.18
2023-05-24T04:21:47.601Z,11.15
2023-05-24T04:24:17.671Z,11.68
2023-05-24T04:26:47.993Z,12.48
2023-05-24T04:29:18.544Z,13.63
2023-05-24T04:31:49.087Z,14.20
2023-05-24T04:34:18.250Z,14.52
2023-05-24T04:36:47.708Z,15.40
2023-05-24T04:39:16.238Z,16.05
2023-05-24T04:41:44.437Z,16.48
2023-05-24T04:44:14.092Z,16.88
2023-05-24T04:46:45.414Z,15.85
2023-05-24T04:49:14.420Z,15.98
2023-05-24T04:51:43.180Z,16.75
2023-05-24T04:54:13.019Z,15.52
2023-05-24T04:56:41.706Z,15.98
2023-05-24T04:59:10.733Z,15.52
2023-05-24T05:01:40.401Z,14.70
2023-05-24T05:04:10.743Z,14.68
2023-05-24T05:06:45.340Z,14.90
2023-05-24T05:09:14.901Z,15.93
2023-05-24T05:11:43.922Z,15.02
2023-05-24T05:14:13.665Z,14.55
2023-05-24T05:16:42.575Z,15.00
2023-05-24T05:19:15.115Z,14.00
2023-05-24T05:21:43.452Z,13.50
2023-05-24T05:24:13.708Z,13.85
2023-05-24T05:26:44.710Z,12.60
2023-05-24T05:29:16.327Z,12.05
2023-05-24T05:31:46.688Z,12.52
2023-05-24T05:34:16.553Z,12.60
2023-05-24T05:36:46.704Z,12.18
2023-05-24T05:39:18.194Z,12.85
2023-05-24T05:41:49.455Z,12.02
2023-05-24T05:44:18.998Z,11.63
2023-05-24T05:46:48.970Z,11.50
2023-05-24T05:49:18.701Z,12.48
2023-05-24T05:51:48.672Z,10.95
2023-05-24T05:54:18.560Z,11.13
2023-05-24T05:56:49.232Z,11.73
2023-05-24T05:59:19.854Z,11.33
2023-05-24T06:01:51.284Z,12.00
2023-05-24T06:04:24.897Z,12.00
2023-05-24T06:06:53.385Z,11.30
2023-05-24T06:09:21.700Z,11.65
2023-05-24T06:11:51.949Z,12.48
2023-05-24T06:14:26.906Z,11.73
2023-05-24T06:17:00.134Z,11.38
2023-05-24T06:19:34.552Z,9.95
2023-05-24T06:22:07.043Z,9.77
2023-05-24T06:24:35.550Z,8.77
2023-05-24T06:27:05.693Z,9.35
2023-05-24T06:29:35.895Z,9.50
2023-05-24T06:32:04.491Z,9.00
2023-05-24T06:34:36.240Z,9.00
2023-05-24T06:37:06.160Z,8.13
2023-05-24T06:39:38.908Z,9.52
2023-05-24T06:42:12.637Z,9.02
2023-05-24T06:44:43.445Z,9.02
2023-05-24T06:47:15.068Z,9.05
2023-05-24T06:52:17.516Z,8.35
2023-05-24T06:54:47.508Z,9.00
2023-05-24T06:57:18.891Z,7.88
2023-05-24T06:59:50.691Z,7.95
2023-05-24T07:02:24.305Z,8.23
2023-05-24T07:04:59.022Z,8.15
2023-05-24T07:07:28.848Z,8.48
2023-05-24T07:09:59.342Z,8.15
2023-05-24T07:12:27.876Z,8.35
2023-05-24T07:14:57.947Z,8.82
2023-05-24T07:17:26.553Z,8.27
2023-05-24T07:19:59.676Z,8.75
2023-05-24T07:22:31.656Z,7.60
2023-05-24T07:25:02.972Z,7.80
2023-05-24T07:27:33.193Z,7.88
2023-05-24T07:30:07.791Z,7.97
2023-05-24T07:32:42.367Z,7.75
2023-05-24T07:35:17.677Z,7.88
2023-05-24T07:37:48.547Z,8.30
2023-05-24T07:40:21.729Z,7.70
2023-05-24T07:42:51.586Z,8.70
2023-05-24T07:45:27.536Z,8.27
2023-05-24T07:47:57.154Z,8.70
2023-05-24T07:50:29.159Z,8.57
2023-05-24T07:52:58.485Z,8.48
2023-05-24T07:55:28.018Z,8.68
2023-05-24T07:58:03.616Z,9.20
2023-05-24T08:00:33.213Z,8.70
2023-05-24T08:03:01.870Z,9.35
2023-05-24T08:05:31.855Z,8.50
2023-05-24T08:08:00.789Z,8.38
2023-05-24T08:10:29.014Z,9.05
2023-05-24T08:13:01.412Z,8.75
2023-05-24T08:15:30.007Z,9.00
2023-05-24T08:17:58.486Z,9.57
2023-05-24T08:20:27.591Z,9.20
2023-05-24T08:22:57.671Z,9.55
2023-05-24T08:25:27.222Z,9.07
2023-05-24T08:27:57.620Z,8.80
2023-05-24T08:30:26.295Z,8.70
2023-05-24T08:32:55.222Z,8.40
2023-05-24T08:35:24.062Z,8.40
2023-05-24T08:37:52.562Z,8.75
2023-05-24T08:40:23.969Z,8.70
2023-05-24T08:42:54.540Z,8.05
2023-05-24T08:45:23.881Z,8.27
2023-05-24T08:47:53.300Z,8.07
2023-05-24T08:50:21.971Z,8.38
2023-05-24T08:52:51.224Z,7.55
2023-05-24T08:55:22.785Z,9.07
2023-05-24T08:57:52.733Z,8.75
2023-05-24T09:00:22.774Z,8.63
2023-05-24T09:02:52.496Z,9.18
2023-05-24T09:05:24.330Z,9.07
2023-05-24T09:10:24.218Z,9.10
2023-05-24T09:12:56.832Z,8.80
2023-05-24T09:15:29.300Z,8.32
2023-05-24T09:17:58.261Z,8.35
2023-05-24T09:20:27.743Z,8.10
2023-05-24T09:22:57.890Z,8.18
2023-05-24T09:25:30.470Z,7.78
2023-05-24T09:27:59.501Z,7.25
2023-05-24T09:30:28.032Z,7.35
2023-05-24T09:32:58.326Z,6.85
2023-05-24T09:35:28.622Z,7.63
2023-05-24T09:38:00.153Z,7.75
2023-05-24T09:43:07.460Z,7.53
2023-05-24T09:45:40.524Z,7.30
2023-05-24T09:48:12.747Z,7.30
2023-05-24T09:50:41.922Z,7.32
2023-05-24T09:53:10.724Z,7.82
2023-05-24T09:55:41.150Z,7.05
2023-05-24T09:58:12.916Z,6.95
2023-05-24T10:00:44.195Z,6.45
2023-05-24T10:03:14.258Z,6.22
2023-05-24T10:05:45.860Z,6.45
2023-05-24T10:10:46.651Z,6.35
2023-05-24T10:13:17.793Z,6.70
2023-05-24T10:15:46.279Z,6.38
2023-05-24T10:18:14.783Z,6.28
2023-05-24T10:20:44.632Z,6.10
2023-05-24T10:23:18.220Z,6.10
2023-05-24T10:25:53.929Z,6.10
2023-05-24T10:28:24.703Z,6.00
2023-05-24T10:31:04.541Z,6.40
2023-05-24T10:33:36.302Z,6.20
2023-05-24T10:38:40.767Z,6.03
2023-05-24T10:41:10.884Z,6.38
2023-05-24T10:43:40.416Z,6.00
2023-05-24T10:46:11.085Z,5.90
2023-05-24T10:48:42.495Z,5.60
2023-05-24T10:51:40.482Z,5.55
2023-05-24T10:54:13.775Z,5.93
2023-05-24T10:56:47.225Z,5.63
2023-05-24T10:59:37.680Z,5.35
2023-05-24T11:02:09.858Z,5.82
2023-05-24T11:04:41.318Z,5.47
2023-05-24T11:07:10.759Z,5.07
2023-05-24T11:09:46.112Z,5.45
2023-05-24T11:12:18.785Z,5.50
2023-05-24T11:14:55.697Z,5.60
2023-05-24T11:17:25.702Z,5.03
2023-05-24T11:19:55.675Z,5.43
2023-05-24T11:22:27.201Z,4.85
2023-05-24T11:25:00.145Z,4.82
2023-05-24T11:27:32.117Z,5.13
2023-05-24T11:30:02.270Z,5.53
2023-05-24T11:32:33.843Z,5.20
2023-05-24T11:35:02.209Z,5.57
2023-05-24T11:37:38.827Z,5.13
2023-05-24T11:40:16.635Z,5.38
2023-05-24T11:42:48.183Z,5.05
2023-05-24T11:45:19.945Z,5.47
2023-05-24T11:47:50.534Z,4.97
2023-05-24T11:50:28.717Z,5.05
2023-05-24T11:53:04.482Z,5.50
2023-05-24T11:55:35.283Z,5.38
2023-05-24T11:58:11.698Z,5.40
2023-05-24T12:00:41.887Z,5.38
2023-05-24T12:03:11.206Z,5.15
2023-05-24T12:05:41.627Z,4.45
2023-05-24T12:08:15.574Z,5.20
2023-05-24T12:10:46.698Z,5.32
2023-05-24T12:13:24.464Z,4.65
2023-05-24T12:15:56.874Z,4.90
2023-05-24T12:18:28.068Z,5.10
2023-05-24T12:20:58.029Z,5.07
2023-05-24T12:23:32.766Z,5.13
2023-05-24T12:26:02.087Z,4.95
2023-05-24T12:28:39.233Z,4.97
2023-05-24T12:31:08.679Z,4.97
2023-05-24T12:33:38.434Z,4.97
2023-05-24T12:36:07.277Z,4.85
2023-05-24T12:38:36.313Z,4.90
2023-05-24T12:41:12.471Z,5.20
2023-05-24T12:43:44.547Z,4.88
2023-05-24T12:46:15.053Z,5.25
2023-05-24T12:48:43.402Z,5.00
2023-05-24T12:51:12.167Z,4.90
2023-05-24T12:53:40.703Z,4.55
2023-05-24T12:56:11.069Z,5.13
2023-05-24T12:58:41.015Z,5.00
2023-05-24T13:01:10.713Z,5.03
2023-05-24T13:03:39.620Z,5.03
2023-05-24T13:06:09.052Z,5.20
2023-05-24T13:08:40.760Z,4.93
2023-05-24T13:11:12.412Z,4.82
2023-05-24T13:13:40.786Z,5.10
2023-05-24T13:16:10.886Z,5.05
2023-05-24T13:18:39.801Z,4.90
2023-05-24T13:21:12.083Z,4.97
2023-05-24T13:23:42.058Z,4.72
2023-05-24T13:26:12.481Z,5.10
2023-05-24T13:29:07.681Z,4.70
2023-05-24T13:31:34.726Z,4.70
2023-05-24T13:34:03.370Z,5.03
2023-05-24T13:36:34.700Z,5.10
2023-05-24T13:41:37.224Z,4.43
2023-05-24T13:44:05.820Z,4.57
2023-05-24T13:46:36.807Z,4.80
2023-05-24T13:49:06.216Z,5.18
2023-05-24T13:51:34.726Z,4.97
2023-05-24T13:54:03.432Z,4.72
2023-05-24T13:56:33.316Z,4.60
2023-05-24T13:59:02.078Z,4.70
2023-05-24T14:01:30.569Z,4.32
2023-05-24T14:04:01.327Z,4.75
2023-05-24T14:06:30.003Z,4.75
2023-05-24T14:08:58.795Z,5.10
2023-05-24T14:11:27.824Z,4.50
2023-05-24T14:14:47.585Z,4.43
2023-05-24T14:16:45.666Z,4.45
2023-05-24T14:19:17.371Z,4.38
2023-05-24T14:21:45.996Z,4.90
2023-05-24T14:24:14.352Z,4.40
2023-05-24T14:26:43.776Z,4.43
2023-05-24T14:29:12.662Z,4.80
2023-05-24T14:31:42.467Z,4.85
2023-05-24T14:34:12.135Z,4.57
2023-05-24T14:36:42.872Z,5.03
2023-05-24T14:39:11.467Z,4.22
2023-05-24T14:41:40.812Z,4.28
2023-05-24T14:44:09.107Z,4.45
2023-05-24T14:46:37.790Z,4.70
2023-05-24T14:49:06.416Z,4.40
2023-05-24T14:51:36.824Z,4.68
2023-05-24T14:54:07.892Z,4.32
2023-05-24T14:56:37.281Z,4.65
2023-05-24T14:59:05.522Z,4.38
2023-05-24T15:01:34.329Z,4.40
2023-05-24T15:04:03.068Z,4.70
2023-05-24T15:06:35.074Z,4.80
2023-05-24T15:09:04.013Z,4.88
2023-05-24T15:11:36.930Z,4.55
2023-05-24T15:14:05.505Z,4.22
2023-05-24T15:16:34.462Z,5.00
2023-05-24T15:19:02.997Z,4.65
2023-05-24T15:21:31.283Z,4.53
2023-05-24T15:23:59.520Z,4.50
2023-05-24T15:26:28.850Z,4.28
2023-05-24T15:29:01.149Z,4.40
2023-05-24T15:31:29.909Z,4.25
2023-05-24T15:33:58.382Z,4.18
2023-05-24T15:36:26.568Z,4.30
2023-05-24T15:38:55.164Z,4.47
2023-05-24T15:41:23.925Z,4.13
2023-05-24T15:43:52.605Z,4.20
2023-05-24T15:46:23.735Z,4.30
2023-05-24T15:48:52.346Z,4.25
2023-05-24T15:53:53.668Z,4.18
2023-05-24T15:56:23.714Z,4.10
2023-05-24T15:58:53.156Z,4.45
2023-05-24T16:01:26.711Z,4.40
2023-05-24T16:03:55.479Z,4.57
2023-05-24T16:06:23.997Z,4.38
2023-05-24T16:08:52.590Z,4.75
2023-05-24T16:11:22.061Z,4.75
2023-05-24T16:13:50.841Z,4.40
2023-05-24T16:16:23.047Z,4.43
2023-05-24T16:18:53.563Z,4.40
2023-05-24T16:21:22.012Z,4.20
2023-05-24T16:23:52.730Z,4.40
2023-05-24T16:26:21.320Z,4.53
2023-05-24T16:28:51.305Z,4.60
2023-05-24T16:31:21.002Z,4.40
2023-05-24T16:33:49.516Z,4.30
2023-05-24T16:36:20.586Z,4.80
2023-05-24T16:38:49.353Z,4.28
2023-05-24T16:41:17.679Z,4.55
2023-05-24T16:43:46.346Z,4.30
2023-05-24T16:46:14.732Z,4.20
2023-05-24T16:48:43.230Z,4.35
2023-05-24T16:51:11.478Z,4.50
2023-05-24T16:53:42.425Z,4.63
2023-05-24T16:56:10.784Z,4.50
2023-05-24T16:58:42.980Z,4.47
2023-05-24T17:01:11.356Z,4.70
2023-05-24T17:03:42.648Z,4.53
2023-05-24T17:06:14.361Z,4.38
2023-05-24T17:08:45.285Z,4.50
2023-05-24T17:11:15.777Z,4.55
2023-05-24T17:13:46.004Z,4.30
2023-05-24T17:16:15.421Z,4.38
2023-05-24T17:18:44.141Z,4.68
2023-05-24T17:21:13.157Z,4.35
2023-05-24T17:23:41.662Z,4.72
2023-05-24T17:26:14.874Z,4.93
2023-05-24T17:28:46.210Z,4.78
2023-05-24T17:31:15.957Z,4.60
2023-05-24T17:33:44.622Z,4.70
2023-05-24T17:36:13.108Z,4.75
2023-05-24T17:38:42.137Z,4.90
2023-05-24T17:41:11.904Z,5.00
2023-05-24T17:43:40.624Z,5.10
2023-05-24T17:46:09.720Z,5.00
2023-05-24T17:48:40.716Z,4.47
2023-05-24T17:51:10.608Z,4.90
2023-05-24T17:53:41.284Z,4.78
2023-05-24T17:56:11.321Z,4.97
2023-05-24T17:58:43.605Z,5.00
2023-05-24T18:01:13.497Z,5.38
2023-05-24T18:03:42.791Z,5.30
2023-05-24T18:06:12.316Z,5.32
2023-05-24T18:08:44.080Z,6.07
2023-05-24T18:11:17.653Z,5.57
2023-05-24T18:13:46.492Z,6.00
2023-05-24T18:16:15.461Z,6.10
2023-05-24T18:18:44.956Z,5.65
2023-05-24T18:21:13.825Z,5.95
2023-05-24T18:23:45.626Z,5.63
2023-05-24T18:26:17.069Z,5.70
2023-05-24T18:28:45.530Z,5.57
2023-05-24T18:31:14.840Z,6.13
2023-05-24T18:33:43.676Z,6.13
2023-05-24T18:36:12.929Z,6.10
2023-05-24T18:38:42.790Z,6.20
2023-05-24T18:41:14.207Z,6.30
2023-05-24T18:46:18.009Z,6.57
2023-05-24T18:48:47.850Z,6.65
2023-05-24T18:51:16.897Z,6.80
2023-05-24T18:53:50.769Z,6.93
2023-05-24T18:56:20.120Z,6.85
2023-05-24T18:58:51.341Z,6.68
2023-05-24T19:01:21.833Z,6.80
2023-05-24T19:03:52.228Z,6.60
2023-05-24T19:06:20.480Z,6.95
2023-05-24T19:08:49.094Z,6.88
2023-05-24T19:11:18.324Z,6.50
2023-05-24T19:13:46.845Z,6.70
2023-05-24T19:16:18.630Z,6.90
2023-05-24T19:21:16.561Z,6.57
2023-05-24T19:23:44.780Z,6.80
2023-05-24T19:26:13.247Z,6.90
2023-05-24T19:28:42.235Z,6.93
2023-05-24T19:31:10.689Z,6.70
2023-05-24T19:33:56.025Z,7.00
2023-05-24T19:36:29.718Z,6.82
2023-05-24T19:38:58.166Z,7.22
2023-05-24T19:41:27.033Z,7.63
2023-05-24T19:43:58.677Z,7.70
2023-05-24T19:46:27.927Z,7.63
2023-05-24T19:48:57.903Z,8.70
2023-05-24T19:51:28.037Z,8.60
2023-05-24T19:53:56.628Z,8.00
2023-05-24T19:56:25.953Z,7.75
2023-05-24T19:58:54.537Z,7.30
2023-05-24T20:01:23.050Z,7.15
2023-05-24T20:03:54.017Z,7.82
2023-05-24T20:06:24.474Z,7.80
2023-05-24T20:08:53.023Z,8.00
2023-05-24T20:11:22.988Z,7.63
2023-05-24T20:13:52.734Z,7.72
2023-05-24T20:16:21.580Z,7.75
2023-05-24T20:18:50.030Z,7.82
2023-05-24T20:21:20.221Z,7.75
2023-05-24T20:23:55.230Z,7.60
2023-05-24T20:26:25.013Z,7.65
2023-05-24T20:28:53.670Z,7.57
2023-05-24T20:31:22.374Z,7.47
2023-05-24T20:33:51.659Z,7.45
2023-05-24T20:36:20.418Z,7.50
2023-05-24T20:38:50.410Z,7.88
2023-05-24T20:41:19.612Z,7.70
2023-05-24T20:43:48.775Z,8.00
2023-05-24T20:46:17.626Z,7.88
2023-05-24T20:48:46.931Z,8.05
2023-05-24T20:51:15.378Z,8.50
2023-05-24T20:53:45.893Z,7.93
2023-05-24T20:56:16.036Z,8.27
2023-05-24T20:58:46.108Z,8.00
2023-05-24T21:01:14.379Z,8.20
2023-05-24T21:03:43.398Z,8.50
2023-05-24T21:06:12.012Z,9.07
2023-05-24T21:08:40.488Z,8.70
2023-05-24T21:11:09.946Z,8.70
2023-05-24T21:13:43.260Z,8.25
2023-05-24T21:16:13.114Z,8.80
2023-05-24T21:18:42.393Z,8.20
2023-05-24T21:21:13.450Z,9.18
2023-05-24T21:23:42.433Z,9.50
2023-05-24T21:26:10.991Z,9.52
2023-05-24T21:28:41.503Z,9.50
2023-05-24T21:31:10.851Z,9.35
2023-05-24T21:33:43.020Z,9.48
2023-05-24T21:36:12.408Z,9.73
2023-05-24T21:38:41.924Z,10.25
2023-05-24T21:41:10.331Z,9.90
2023-05-24T21:43:43.396Z,10.18
2023-05-24T21:46:11.973Z,10.75
2023-05-24T21:48:40.665Z,10.13
2023-05-24T21:51:11.231Z,9.30
2023-05-24T21:53:42.692Z,9.63
2023-05-24T21:56:11.131Z,9.82
2023-05-24T21:58:41.209Z,10.73
2023-05-24T22:01:09.819Z,10.27
2023-05-24T22:03:39.101Z,10.07
2023-05-24T22:06:09.432Z,9.98
2023-05-24T22:08:37.953Z,10.05
2023-05-24T22:11:06.711Z,10.43
2023-05-24T22:13:35.570Z,10.02
2023-05-24T22:16:06.131Z,9.90
2023-05-24T22:18:39.021Z,9.75
2023-05-24T22:21:07.945Z,9.68
2023-05-24T22:23:36.784Z,10.23
2023-05-24T22:26:05.877Z,9.88
2023-05-24T22:28:51.932Z,10.00
2023-05-24T22:31:23.722Z,10.35
2023-05-24T22:33:53.386Z,10.02
2023-05-24T22:36:21.831Z,10.20
2023-05-24T22:38:50.186Z,10.07
2023-05-24T22:41:18.719Z,10.48
2023-05-24T22:43:47.166Z,10.57
2023-05-24T22:46:19.297Z,10.20
2023-05-24T22:48:52.539Z,10.55
2023-05-24T22:51:22.230Z,11.50
2023-05-24T22:53:52.628Z,12.68
2023-05-24T22:56:22.699Z,11.73
2023-05-24T22:58:53.241Z,11.20
2023-05-24T23:01:22.159Z,10.50
2023-05-24T23:03:52.078Z,10.95
2023-05-24T23:06:21.194Z,10.50
2023-05-24T23:08:50.543Z,10.70
2023-05-24T23:11:19.058Z,10.48
2023-05-24T23:13:47.789Z,10.70
2023-05-24T23:16:19.335Z,10.80
2023-05-24T23:18:49.473Z,11.10
2023-05-24T23:21:25.579Z,10.50
2023-05-24T23:23:56.835Z,10.65
2023-05-24T23:26:27.117Z,10.73
2023-05-24T23:28:55.512Z,10.52
2023-05-24T23:31:24.707Z,10.68
2023-05-24T23:33:54.865Z,11.00
2023-05-24T23:36:24.510Z,10.23
2023-05-24T23:38:52.667Z,10.20
2023-05-24T23:41:21.614Z,10.18
2023-05-24T23:43:52.558Z,9.98
2023-05-24T23:46:21.129Z,9.50
2023-05-24T23:48:50.098Z,9.55
2023-05-24T23:51:20.358Z,9.30
2023-05-24T23:53:50.403Z,9.60
2023-05-24T23:56:19.300Z,8.82
2023-05-24T23:58:48.019Z,9.13
